Time;durP1;ratioP1;P1;durP2;ratioP2;P2;SDS_P1;SDS_P2;PMS_P1;PMS_P2;Temp;Humidity;BMP_temperature;BMP_pressure;BME280_temperature;BME280_humidity;BME280_pressure;Samples;Min_cycle;Max_cycle;Signal;HPM_P1;HPM_P2
2021/07/24 00:01:36;;;;;;;20.23;10.43;;;20.90;99.90;;;;;;20814523;28;20052;-78
2021/07/24 00:11:37;;;;;;;23.13;10.50;;;20.70;99.90;;;;;;20828029;28;20425;-76
2021/07/24 00:21:38;;;;;;;16.27;9.67;;;20.50;99.90;;;;;;20843435;28;20026;-77
2021/07/24 00:31:39;;;;;;;19.70;11.10;;;20.60;99.90;;;;;;20831178;28;20045;-77
2021/07/24 00:41:46;;;;;;;19.30;10.35;;;20.20;99.90;;;;;;20840483;28;20112;-78
2021/07/24 00:51:48;;;;;;;22.27;11.55;;;20.00;99.90;;;;;;20821179;28;20038;-78
2021/07/24 01:01:51;;;;;;;18.65;10.70;;;19.80;99.90;;;;;;20840914;28;20049;-78
2021/07/24 01:11:53;;;;;;;13.20;8.43;;;19.80;99.90;;;;;;20822750;28;20091;-78
2021/07/24 01:21:55;;;;;;;16.63;9.30;;;19.90;99.90;;;;;;20822558;28;20033;-78
2021/07/24 01:31:57;;;;;;;19.48;11.32;;;19.90;99.90;;;;;;20837679;28;20041;-78
2021/07/24 01:42:00;;;;;;;23.00;11.00;;;19.90;99.90;;;;;;20837271;28;20033;-79
2021/07/24 01:52:46;;;;;;;17.85;10.95;;;19.80;99.90;;;;;;20814211;28;20040;-78
2021/07/24 02:02:52;;;;;;;24.45;11.07;;;19.60;99.90;;;;;;20812202;28;20033;-76
2021/07/24 02:13:10;;;;;;;19.52;9.68;;;19.10;99.90;;;;;;20786029;28;20033;-77
2021/07/24 02:23:12;;;;;;;16.85;8.63;;;19.40;99.90;;;;;;20817987;28;20044;-77
2021/07/24 02:33:13;;;;;;;16.70;10.57;;;19.60;99.90;;;;;;20811214;28;20163;-78
2021/07/24 02:43:14;;;;;;;19.23;10.43;;;19.50;99.90;;;;;;20809540;28;20041;-77
2021/07/24 02:53:16;;;;;;;17.35;9.65;;;19.30;99.90;;;;;;20809504;28;20033;-77
2021/07/24 03:03:18;;;;;;;25.73;10.45;;;19.40;99.90;;;;;;20810540;28;20096;-78
2021/07/24 03:13:19;;;;;;;18.30;11.53;;;18.90;99.90;;;;;;20828507;28;20680;-78
2021/07/24 03:23:20;;;;;;;20.60;11.00;;;18.90;99.90;;;;;;20831218;28;20100;-77
2021/07/24 03:33:21;;;;;;;18.03;10.70;;;18.80;99.90;;;;;;20827101;28;20056;-78
2021/07/24 03:43:22;;;;;;;19.70;10.23;;;18.70;99.90;;;;;;20823265;28;20128;-77
2021/07/24 03:53:23;;;;;;;20.90;10.03;;;18.50;99.90;;;;;;20801028;28;20819;-77
2021/07/24 04:03:25;;;;;;;24.30;12.70;;;18.40;99.90;;;;;;20820922;28;20049;-76
2021/07/24 04:13:26;;;;;;;20.65;13.02;;;18.50;99.90;;;;;;20823716;28;20033;-77
2021/07/24 04:23:27;;;;;;;23.07;11.97;;;18.00;99.90;;;;;;20842332;28;20029;-77
2021/07/24 04:33:27;;;;;;;22.40;11.97;;;18.00;99.90;;;;;;20842001;28;20396;-78
2021/07/24 04:43:28;;;;;;;25.33;14.17;;;18.20;99.90;;;;;;20839995;28;20040;-78
2021/07/24 04:53:31;;;;;;;28.30;13.73;;;18.30;99.90;;;;;;20839291;28;20033;-78
2021/07/24 05:03:33;;;;;;;20.75;12.40;;;18.50;99.90;;;;;;20833690;28;20464;-78
2021/07/24 05:13:34;;;;;;;22.30;13.18;;;18.40;99.90;;;;;;20829495;28;20526;-77
2021/07/24 05:23:35;;;;;;;22.57;13.13;;;18.70;99.90;;;;;;20815333;28;20030;-77
2021/07/24 05:33:35;;;;;;;25.67;13.53;;;18.80;99.90;;;;;;20834864;28;20037;-78
2021/07/24 05:43:36;;;;;;;24.83;14.50;;;18.60;99.90;;;;;;20829537;28;20516;-78
2021/07/24 05:53:37;;;;;;;25.43;15.00;;;18.70;99.90;;;;;;20841196;22;20530;-75
2021/07/24 06:03:39;;;;;;;25.60;14.83;;;18.80;99.90;;;;;;20746089;28;20026;-74
2021/07/24 06:13:39;;;;;;;;;;;18.90;99.90;;;;;;20742394;28;20034;-76
2021/07/24 06:23:40;;;;;;;33.03;15.80;;;19.00;99.90;;;;;;20742403;28;20307;-76
2021/07/24 06:33:41;;;;;;;30.07;17.00;;;19.00;99.90;;;;;;20746553;28;20061;-74
2021/07/24 06:43:42;;;;;;;22.47;13.57;;;19.20;99.90;;;;;;20742602;28;20079;-75
2021/07/24 06:53:43;;;;;;;30.53;14.57;;;19.40;99.90;;;;;;20742237;28;20125;-75
2021/07/24 07:03:44;;;;;;;29.90;14.30;;;19.50;99.90;;;;;;20753526;28;20036;-77
2021/07/24 07:13:44;;;;;;;22.57;12.67;;;19.50;99.90;;;;;;20754763;28;20022;-74
2021/07/24 07:23:45;;;;;;;25.30;13.27;;;19.60;99.90;;;;;;20756104;28;20029;-74
2021/07/24 07:33:46;;;;;;;21.90;13.37;;;19.70;99.90;;;;;;20756340;28;20022;-74
2021/07/24 07:43:48;;;;;;;17.37;12.10;;;19.80;99.90;;;;;;20763699;28;20037;-74
2021/07/24 07:53:48;;;;;;;;;;;19.70;99.90;;;;;;20753298;28;20117;-74
2021/07/24 08:03:49;;;;;;;25.47;15.10;;;19.30;99.90;;;;;;20733248;28;20003;-74
2021/07/24 08:13:54;;;;;;;32.77;18.40;;;19.30;99.90;;;;;;20754072;28;20036;-73
2021/07/24 08:23:55;;;;;;;29.83;17.85;;;19.20;99.90;;;;;;20752148;28;20064;-73
2021/07/24 08:33:56;;;;;;;32.40;18.17;;;19.30;99.90;;;;;;20732575;28;20037;-74
2021/07/24 08:43:57;;;;;;;30.67;17.17;;;19.20;99.90;;;;;;20731366;28;20400;-74
2021/07/24 08:53:58;;;;;;;29.33;17.93;;;19.30;99.90;;;;;;20748056;28;20026;-74
2021/07/24 09:04:03;;;;;;;32.63;19.90;;;19.00;99.90;;;;;;20747501;28;20053;-74
2021/07/24 09:14:04;;;;;;;29.75;16.70;;;19.00;99.90;;;;;;20746330;28;20034;-74
2021/07/24 09:24:26;;;;;;;34.00;16.90;;;19.10;99.90;;;;;;20728216;28;20061;-74
2021/07/24 09:34:38;;;;;;;;;;;19.00;99.90;;;;;;20745595;28;20080;-74
2021/07/24 09:44:39;;;;;;;26.40;14.25;;;19.20;99.90;;;;;;20744503;28;19909;-74
2021/07/24 09:54:40;;;;;;;27.53;14.97;;;19.80;99.90;;;;;;20726491;28;20157;-74
2021/07/24 10:04:52;;;;;;;27.98;16.55;;;19.80;99.90;;;;;;20743680;28;20029;-74
2021/07/24 10:14:52;;;;;;;26.37;16.17;;;20.40;99.90;;;;;;20719730;28;20034;-74
2021/07/24 10:24:53;;;;;;;22.83;13.00;;;20.10;99.90;;;;;;20720085;28;20030;-74
2021/07/24 10:34:55;;;;;;;22.87;13.73;;;20.30;99.90;;;;;;20708285;28;20064;-75
2021/07/24 10:44:55;;;;;;;;;;;20.50;99.90;;;;;;20736075;28;20046;-75
2021/07/24 10:55:04;;;;;;;27.33;15.73;;;21.60;99.90;;;;;;20739885;28;20014;-77
2021/07/24 11:05:25;;;;;;;30.35;15.52;;;22.10;99.90;;;;;;20720559;28;20061;-80
2021/07/24 11:15:43;;;;;;;29.15;14.32;;;23.50;99.90;;;;;;20738039;28;20123;-80
2021/07/24 11:25:46;;;;;;;18.80;13.35;;;24.90;99.90;;;;;;20718476;28;20124;-76
2021/07/24 11:35:51;;;;;;;21.23;12.90;;;23.50;99.90;;;;;;20735265;28;20528;-74
2021/07/24 11:46:03;;;;;;;24.92;12.38;;;23.40;99.90;;;;;;20763113;22;20814;-75
2021/07/24 11:56:10;;;;;;;19.20;11.05;;;22.90;99.90;;;;;;20802835;28;20120;-76
2021/07/24 12:06:12;;;;;;;20.52;12.73;;;23.00;99.90;;;;;;20740727;28;20057;-77
2021/07/24 12:16:14;;;;;;;18.80;12.27;;;22.80;99.90;;;;;;20730066;28;20029;-76
2021/07/24 12:26:23;;;;;;;21.10;10.77;;;23.50;99.90;;;;;;20729720;28;20033;-76
2021/07/24 12:36:28;;;;;;;17.25;11.70;;;24.30;99.90;;;;;;20725884;28;20034;-78
2021/07/24 12:46:29;;;;;;;22.05;10.52;;;23.90;99.90;;;;;;20729716;28;20046;-76
2021/07/24 12:56:31;;;;;;;14.60;9.35;;;24.80;99.90;;;;;;20728031;28;20038;-75
2021/07/24 13:06:31;;;;;;;17.48;10.07;;;24.20;99.90;;;;;;20726553;28;20034;-76
2021/07/24 13:16:34;;;;;;;17.43;9.73;;;23.20;99.90;;;;;;20732837;28;20038;-76
2021/07/24 13:36:45;;;;;;;22.17;10.57;;;24.00;99.90;;;;;;20708463;28;20041;-75
2021/07/24 13:46:45;;;;;;;18.50;10.50;;;24.40;99.90;;;;;;20727880;28;20038;-76
2021/07/24 13:56:47;;;;;;;14.40;8.82;;;24.00;99.90;;;;;;20724259;28;20782;-76
2021/07/24 14:06:48;;;;;;;16.23;8.60;;;24.60;99.90;;;;;;20722689;28;20128;-76
2021/07/24 14:16:49;;;;;;;;;;;24.90;99.90;;;;;;20706687;28;20044;-76
2021/07/24 14:26:50;;;;;;;16.27;9.87;;;24.80;99.90;;;;;;20722354;28;19913;-76
2021/07/24 14:36:51;;;;;;;;;;;24.30;99.90;;;;;;20723997;28;20037;-76
2021/07/24 14:46:52;;;;;;;14.80;9.68;;;23.80;99.90;;;;;;20724503;28;19948;-75
2021/07/24 14:56:52;;;;;;;15.23;10.05;;;23.30;99.90;;;;;;20724788;28;20107;-75
2021/07/24 15:06:53;;;;;;;;;;;23.80;99.90;;;;;;20721872;28;20038;-76
2021/07/24 15:16:54;;;;;;;17.07;8.00;;;25.60;99.90;;;;;;20705947;28;19917;-75
2021/07/24 15:26:55;;;;;;;10.63;7.15;;;26.20;99.90;;;;;;20742876;28;20121;-76
2021/07/24 15:36:55;;;;;;;13.17;7.20;;;27.00;99.90;;;;;;20735328;28;20571;-76
2021/07/24 15:46:57;;;;;;;7.88;5.38;;;26.10;99.90;;;;;;20734467;28;20291;-76
2021/07/24 15:56:57;;;;;;;20.50;7.07;;;27.20;99.90;;;;;;20715291;28;20030;-76
2021/07/24 16:06:59;;;;;;;8.77;4.78;;;27.40;99.90;;;;;;20713111;28;20049;-76
2021/07/24 16:17:00;;;;;;;8.57;5.88;;;26.80;99.90;;;;;;20709632;28;20068;-76
2021/07/24 16:27:02;;;;;;;12.18;6.75;;;26.70;99.90;;;;;;20727590;28;20034;-75
2021/07/24 16:37:03;;;;;;;10.77;5.40;;;26.30;99.90;;;;;;20725287;28;20516;-75
2021/07/24 16:47:03;;;;;;;43.40;24.70;;;26.10;99.90;;;;;;20728363;28;20064;-76
2021/07/24 16:57:04;;;;;;;25.42;18.58;;;26.00;99.90;;;;;;20713857;28;20030;-75
2021/07/24 17:07:06;;;;;;;;;;;25.10;99.90;;;;;;20728368;28;20038;-75
2021/07/24 17:17:06;;;;;;;12.13;8.10;;;25.20;99.90;;;;;;20728315;28;20429;-76
2021/07/24 17:27:07;;;;;;;;;;;24.50;99.90;;;;;;20711999;28;20069;-76
2021/07/24 17:37:08;;;;;;;16.87;8.30;;;24.00;99.90;;;;;;20726427;28;19948;-78
2021/07/24 17:47:09;;;;;;;12.70;8.20;;;23.80;99.90;;;;;;20732749;28;20053;-77
2021/07/24 17:57:10;;;;;;;15.07;8.82;;;23.70;99.90;;;;;;20738912;22;20053;-77
2021/07/24 18:07:10;;;;;;;13.13;8.13;;;23.40;99.90;;;;;;20725260;28;20088;-77
2021/07/24 18:17:11;;;;;;;14.20;8.00;;;22.80;99.90;;;;;;20702928;28;20372;-78
2021/07/24 18:27:12;;;;;;;16.03;8.27;;;22.80;99.90;;;;;;20687982;28;20042;-78
2021/07/24 18:37:13;;;;;;;17.73;9.87;;;22.50;99.90;;;;;;20683572;28;20042;-78
2021/07/24 18:47:14;;;;;;;20.20;9.77;;;22.00;99.90;;;;;;20683001;28;20052;-78
2021/07/24 18:57:15;;;;;;;14.73;9.93;;;21.80;99.90;;;;;;20711355;28;20412;-78
2021/07/24 19:07:18;;;;;;;20.75;9.98;;;21.70;99.90;;;;;;20738701;28;20125;-78
2021/07/24 19:17:19;;;;;;;19.20;10.52;;;21.40;99.90;;;;;;20753442;28;20042;-77
2021/07/24 19:27:21;;;;;;;21.07;12.30;;;21.30;99.90;;;;;;20701494;28;20130;-78
2021/07/24 19:37:30;;;;;;;20.30;11.70;;;21.00;99.90;;;;;;20799290;28;20041;-77
2021/07/24 19:47:32;;;;;;;20.50;10.02;;;20.80;99.90;;;;;;20726569;28;20041;-77
2021/07/24 19:57:33;;;;;;;17.33;11.13;;;20.90;99.90;;;;;;20740515;28;20069;-78
2021/07/24 20:07:35;;;;;;;19.67;10.80;;;20.40;99.90;;;;;;20787159;28;20496;-77
2021/07/24 20:17:36;;;;;;;22.05;12.55;;;20.40;99.90;;;;;;20729671;28;20037;-75
2021/07/24 20:27:38;;;;;;;22.77;14.27;;;20.10;99.90;;;;;;20732605;28;20055;-78
2021/07/24 20:37:41;;;;;;;24.08;14.05;;;20.00;99.90;;;;;;20724444;28;20045;-77
2021/07/24 20:47:42;;;;;;;17.80;11.93;;;20.20;99.90;;;;;;20713261;28;20046;-77
2021/07/24 20:57:43;;;;;;;21.13;12.77;;;20.20;99.90;;;;;;20705982;28;20034;-78
2021/07/24 21:07:44;;;;;;;24.60;14.00;;;20.50;99.90;;;;;;20707407;28;20397;-79
2021/07/24 21:17:44;;;;;;;22.53;12.67;;;20.10;99.90;;;;;;20663035;28;20100;-78
2021/07/24 21:27:45;;;;;;;21.20;11.97;;;20.00;99.90;;;;;;20677263;28;20034;-78
2021/07/24 21:37:47;;;;;;;32.40;14.80;;;20.20;99.90;;;;;;20661510;28;20030;-79
2021/07/24 21:47:48;;;;;;;23.52;14.77;;;20.00;99.90;;;;;;20646741;28;20048;-79
2021/07/24 21:57:49;;;;;;;27.37;12.23;;;20.00;99.90;;;;;;20665894;28;20070;-77
2021/07/24 22:07:50;;;;;;;19.63;10.73;;;19.60;99.90;;;;;;20683801;28;20126;-78
2021/07/24 22:17:51;;;;;;;14.67;10.00;;;19.20;99.90;;;;;;20660030;28;20069;-76
2021/07/24 22:27:55;;;;;;;15.80;8.70;;;19.10;99.90;;;;;;20733870;28;20044;-78
2021/07/24 22:37:56;;;;;;;16.65;8.10;;;19.20;99.90;;;;;;20749382;28;20034;-77
2021/07/24 22:47:57;;;;;;;14.20;7.30;;;18.90;99.90;;;;;;20717167;28;20101;-78
2021/07/24 22:57:58;;;;;;;16.67;7.07;;;18.40;99.90;;;;;;20722514;28;20080;-78
2021/07/24 23:07:59;;;;;;;18.33;7.00;;;18.30;99.90;;;;;;20701904;28;20046;-76
2021/07/24 23:18:00;;;;;;;13.40;6.97;;;18.30;99.90;;;;;;20733766;28;20100;-79
2021/07/24 23:28:00;;;;;;;13.43;6.87;;;18.10;99.90;;;;;;20734110;28;20038;-79
2021/07/24 23:38:01;;;;;;;12.07;6.43;;;18.20;99.90;;;;;;20731835;28;20037;-79
2021/07/24 23:48:03;;;;;;;10.93;6.37;;;18.00;99.90;;;;;;20718015;28;20034;-80
2021/07/24 23:58:07;;;;;;;9.57;7.05;;;18.10;99.90;;;;;;20736569;28;20170;-77
